Modesto, California
Current Conditions -  °F | °C
As of 1:53 PM on Sunday 21 Dec 2014 (Local Time) from KMOD Reporting Station
Broken Clouds Broken Clouds  
Wind Chill: 65°   Ceiling: 2800
Heat Index: 65°   Visibility: 10mi
Dew Point: 56°   Wind: 8mph
Humidity: 73%   Direction: 310°NW
Pressure: 30.23"   Gusts: NA
Location:  37.64°N, 120.99°W
Report Text: KMOD 212153Z 31007KT 10SM FEW019 BKN028 18/13 A3023 RMK AO2 SLP239 T01830133
Loading
Personal Weather Stations






























Interactive Weather Map New forecast layout! Learn more

10-Day Weather Forecast

Advertisements
Track Severe Weather on mobile